sensor_id;sensor_type;location;lat;lon;timestamp;P1;durP1;ratioP1;P2;durP2;ratioP2
3819;SDS011;1925;51.356;9.530;2022-08-14T00:02:22;8.47;;;7.70;;
3819;SDS011;1925;51.356;9.530;2022-08-14T00:04:49;7.80;;;7.07;;
3819;SDS011;1925;51.356;9.530;2022-08-14T00:07:15;9.60;;;7.83;;
3819;SDS011;1925;51.356;9.530;2022-08-14T00:09:42;9.27;;;8.47;;
3819;SDS011;1925;51.356;9.530;2022-08-14T00:12:08;9.23;;;8.40;;
3819;SDS011;1925;51.356;9.530;2022-08-14T00:14:34;10.80;;;9.10;;
3819;SDS011;1925;51.356;9.530;2022-08-14T00:17:00;11.00;;;8.80;;
3819;SDS011;1925;51.356;9.530;2022-08-14T00:19:26;9.67;;;8.57;;
3819;SDS011;1925;51.356;9.530;2022-08-14T00:21:52;9.10;;;8.20;;
3819;SDS011;1925;51.356;9.530;2022-08-14T00:24:19;11.07;;;9.63;;
3819;SDS011;1925;51.356;9.530;2022-08-14T00:26:45;9.23;;;8.33;;
3819;SDS011;1925;51.356;9.530;2022-08-14T00:29:11;8.87;;;7.23;;
3819;SDS011;1925;51.356;9.530;2022-08-14T00:31:37;8.80;;;7.87;;
3819;SDS011;1925;51.356;9.530;2022-08-14T00:34:03;9.07;;;8.23;;
3819;SDS011;1925;51.356;9.530;2022-08-14T00:36:29;9.20;;;7.50;;
3819;SDS011;1925;51.356;9.530;2022-08-14T00:38:55;8.70;;;7.93;;
3819;SDS011;1925;51.356;9.530;2022-08-14T00:41:21;10.90;;;8.80;;
3819;SDS011;1925;51.356;9.530;2022-08-14T00:43:47;10.37;;;9.37;;
3819;SDS011;1925;51.356;9.530;2022-08-14T00:46:13;9.97;;;9.07;;
3819;SDS011;1925;51.356;9.530;2022-08-14T00:48:39;10.83;;;9.67;;
3819;SDS011;1925;51.356;9.530;2022-08-14T00:51:06;9.83;;;8.77;;
3819;SDS011;1925;51.356;9.530;2022-08-14T00:53:33;9.33;;;8.53;;
3819;SDS011;1925;51.356;9.530;2022-08-14T00:56:00;10.73;;;9.73;;
3819;SDS011;1925;51.356;9.530;2022-08-14T00:58:26;10.27;;;9.33;;
3819;SDS011;1925;51.356;9.530;2022-08-14T01:00:55;9.27;;;7.80;;
3819;SDS011;1925;51.356;9.530;2022-08-14T01:03:21;9.33;;;8.53;;
3819;SDS011;1925;51.356;9.530;2022-08-14T01:05:48;9.67;;;7.13;;
3819;SDS011;1925;51.356;9.530;2022-08-14T01:08:28;8.40;;;7.73;;
3819;SDS011;1925;51.356;9.530;2022-08-14T01:10:54;8.50;;;7.60;;
3819;SDS011;1925;51.356;9.530;2022-08-14T01:13:25;8.87;;;8.03;;
3819;SDS011;1925;51.356;9.530;2022-08-14T01:15:53;8.20;;;7.60;;
3819;SDS011;1925;51.356;9.530;2022-08-14T01:18:19;10.67;;;8.57;;
3819;SDS011;1925;51.356;9.530;2022-08-14T01:21:04;9.17;;;8.27;;
3819;SDS011;1925;51.356;9.530;2022-08-14T01:23:33;8.27;;;7.60;;
3819;SDS011;1925;51.356;9.530;2022-08-14T01:25:59;8.77;;;7.87;;
3819;SDS011;1925;51.356;9.530;2022-08-14T01:28:25;10.10;;;9.03;;
3819;SDS011;1925;51.356;9.530;2022-08-14T01:30:52;8.37;;;7.67;;
3819;SDS011;1925;51.356;9.530;2022-08-14T01:33:24;8.90;;;7.43;;
3819;SDS011;1925;51.356;9.530;2022-08-14T01:35:53;7.57;;;6.80;;
3819;SDS011;1925;51.356;9.530;2022-08-14T01:38:21;8.20;;;7.40;;
3819;SDS011;1925;51.356;9.530;2022-08-14T01:40:47;8.80;;;7.90;;
3819;SDS011;1925;51.356;9.530;2022-08-14T01:43:14;8.57;;;7.87;;
3819;SDS011;1925;51.356;9.530;2022-08-14T01:45:44;8.40;;;7.60;;
3819;SDS011;1925;51.356;9.530;2022-08-14T01:48:15;9.00;;;8.03;;
3819;SDS011;1925;51.356;9.530;2022-08-14T01:50:42;8.27;;;7.43;;
3819;SDS011;1925;51.356;9.530;2022-08-14T01:53:08;7.70;;;7.00;;
3819;SDS011;1925;51.356;9.530;2022-08-14T01:55:34;7.40;;;6.80;;
3819;SDS011;1925;51.356;9.530;2022-08-14T01:58:03;8.17;;;7.43;;
3819;SDS011;1925;51.356;9.530;2022-08-14T02:00:29;8.53;;;7.70;;
3819;SDS011;1925;51.356;9.530;2022-08-14T02:02:55;8.80;;;7.60;;
3819;SDS011;1925;51.356;9.530;2022-08-14T02:05:24;8.53;;;7.73;;
3819;SDS011;1925;51.356;9.530;2022-08-14T02:07:53;10.67;;;8.30;;
3819;SDS011;1925;51.356;9.530;2022-08-14T02:10:20;8.50;;;7.80;;
3819;SDS011;1925;51.356;9.530;2022-08-14T02:12:46;8.60;;;7.80;;
3819;SDS011;1925;51.356;9.530;2022-08-14T02:15:13;8.20;;;7.40;;
3819;SDS011;1925;51.356;9.530;2022-08-14T02:17:45;7.73;;;7.03;;
3819;SDS011;1925;51.356;9.530;2022-08-14T02:20:11;8.40;;;7.20;;
3819;SDS011;1925;51.356;9.530;2022-08-14T02:22:37;8.00;;;7.20;;
3819;SDS011;1925;51.356;9.530;2022-08-14T02:25:04;8.33;;;7.17;;
3819;SDS011;1925;51.356;9.530;2022-08-14T02:27:30;8.73;;;7.00;;
3819;SDS011;1925;51.356;9.530;2022-08-14T02:29:56;8.20;;;7.43;;
3819;SDS011;1925;51.356;9.530;2022-08-14T02:32:22;10.77;;;8.07;;
3819;SDS011;1925;51.356;9.530;2022-08-14T02:34:48;8.13;;;7.43;;
3819;SDS011;1925;51.356;9.530;2022-08-14T02:37:14;8.03;;;7.33;;
3819;SDS011;1925;51.356;9.530;2022-08-14T02:39:41;8.10;;;7.00;;
3819;SDS011;1925;51.356;9.530;2022-08-14T02:42:09;8.33;;;7.67;;
3819;SDS011;1925;51.356;9.530;2022-08-14T02:44:36;9.17;;;6.97;;
3819;SDS011;1925;51.356;9.530;2022-08-14T02:47:03;8.23;;;7.53;;
3819;SDS011;1925;51.356;9.530;2022-08-14T02:49:29;8.77;;;6.40;;
3819;SDS011;1925;51.356;9.530;2022-08-14T02:51:56;8.00;;;7.33;;
3819;SDS011;1925;51.356;9.530;2022-08-14T02:54:23;7.27;;;6.67;;
3819;SDS011;1925;51.356;9.530;2022-08-14T02:56:50;8.80;;;8.00;;
3819;SDS011;1925;51.356;9.530;2022-08-14T02:59:18;8.70;;;7.87;;
3819;SDS011;1925;51.356;9.530;2022-08-14T03:01:44;7.27;;;6.67;;
3819;SDS011;1925;51.356;9.530;2022-08-14T03:04:12;7.80;;;7.20;;
3819;SDS011;1925;51.356;9.530;2022-08-14T03:06:38;7.40;;;6.70;;
3819;SDS011;1925;51.356;9.530;2022-08-14T03:09:07;8.20;;;7.07;;
3819;SDS011;1925;51.356;9.530;2022-08-14T03:11:33;7.73;;;7.10;;
3819;SDS011;1925;51.356;9.530;2022-08-14T03:13:59;8.40;;;7.60;;
3819;SDS011;1925;51.356;9.530;2022-08-14T03:16:26;8.20;;;7.57;;
3819;SDS011;1925;51.356;9.530;2022-08-14T03:19:00;8.17;;;7.33;;
3819;SDS011;1925;51.356;9.530;2022-08-14T03:21:27;8.63;;;7.77;;
3819;SDS011;1925;51.356;9.530;2022-08-14T03:23:57;7.70;;;7.10;;
3819;SDS011;1925;51.356;9.530;2022-08-14T03:26:43;9.53;;;7.80;;
3819;SDS011;1925;51.356;9.530;2022-08-14T03:29:11;8.03;;;7.13;;
3819;SDS011;1925;51.356;9.530;2022-08-14T03:31:37;8.30;;;7.50;;
3819;SDS011;1925;51.356;9.530;2022-08-14T03:34:06;9.43;;;8.53;;
3819;SDS011;1925;51.356;9.530;2022-08-14T03:36:34;8.03;;;7.33;;
3819;SDS011;1925;51.356;9.530;2022-08-14T03:39:00;8.23;;;7.43;;
3819;SDS011;1925;51.356;9.530;2022-08-14T03:41:27;8.10;;;7.30;;
3819;SDS011;1925;51.356;9.530;2022-08-14T03:43:54;7.87;;;7.23;;
3819;SDS011;1925;51.356;9.530;2022-08-14T03:46:22;9.07;;;7.87;;
3819;SDS011;1925;51.356;9.530;2022-08-14T03:48:48;8.03;;;7.30;;
3819;SDS011;1925;51.356;9.530;2022-08-14T03:51:14;8.23;;;7.40;;
3819;SDS011;1925;51.356;9.530;2022-08-14T03:53:41;8.80;;;7.87;;
3819;SDS011;1925;51.356;9.530;2022-08-14T03:56:08;7.90;;;7.30;;
3819;SDS011;1925;51.356;9.530;2022-08-14T03:58:51;7.93;;;7.33;;
3819;SDS011;1925;51.356;9.530;2022-08-14T04:01:18;8.40;;;7.70;;
3819;SDS011;1925;51.356;9.530;2022-08-14T04:03:48;8.73;;;7.93;;
3819;SDS011;1925;51.356;9.530;2022-08-14T04:06:15;7.60;;;7.00;;
3819;SDS011;1925;51.356;9.530;2022-08-14T04:08:44;8.20;;;7.40;;
3819;SDS011;1925;51.356;9.530;2022-08-14T04:11:10;7.87;;;7.27;;
3819;SDS011;1925;51.356;9.530;2022-08-14T04:13:38;7.40;;;6.80;;
3819;SDS011;1925;51.356;9.530;2022-08-14T04:16:05;8.13;;;7.40;;
3819;SDS011;1925;51.356;9.530;2022-08-14T04:18:31;7.57;;;6.97;;
3819;SDS011;1925;51.356;9.530;2022-08-14T04:20:57;7.43;;;6.83;;
3819;SDS011;1925;51.356;9.530;2022-08-14T04:23:25;9.27;;;7.73;;
3819;SDS011;1925;51.356;9.530;2022-08-14T04:25:51;8.30;;;7.50;;
3819;SDS011;1925;51.356;9.530;2022-08-14T04:28:18;8.47;;;7.70;;
3819;SDS011;1925;51.356;9.530;2022-08-14T04:30:44;8.90;;;7.60;;
3819;SDS011;1925;51.356;9.530;2022-08-14T04:33:10;8.43;;;7.60;;
3819;SDS011;1925;51.356;9.530;2022-08-14T04:35:36;7.80;;;7.10;;
3819;SDS011;1925;51.356;9.530;2022-08-14T04:38:06;8.80;;;7.90;;
3819;SDS011;1925;51.356;9.530;2022-08-14T04:40:50;8.53;;;7.83;;
3819;SDS011;1925;51.356;9.530;2022-08-14T04:43:35;7.20;;;6.60;;
3819;SDS011;1925;51.356;9.530;2022-08-14T04:46:03;8.70;;;8.00;;
3819;SDS011;1925;51.356;9.530;2022-08-14T04:48:29;9.10;;;7.53;;
3819;SDS011;1925;51.356;9.530;2022-08-14T04:50:55;8.17;;;7.20;;
3819;SDS011;1925;51.356;9.530;2022-08-14T04:53:22;9.30;;;8.33;;
3819;SDS011;1925;51.356;9.530;2022-08-14T04:55:49;7.60;;;7.00;;
3819;SDS011;1925;51.356;9.530;2022-08-14T04:58:48;10.00;;;7.90;;
3819;SDS011;1925;51.356;9.530;2022-08-14T05:01:08;7.63;;;7.00;;
3819;SDS011;1925;51.356;9.530;2022-08-14T05:03:35;8.20;;;7.40;;
3819;SDS011;1925;51.356;9.530;2022-08-14T05:06:03;9.73;;;6.43;;
3819;SDS011;1925;51.356;9.530;2022-08-14T05:08:29;8.83;;;8.07;;
3819;SDS011;1925;51.356;9.530;2022-08-14T05:10:56;7.40;;;6.80;;
3819;SDS011;1925;51.356;9.530;2022-08-14T05:13:24;9.40;;;6.67;;
3819;SDS011;1925;51.356;9.530;2022-08-14T05:15:51;7.37;;;6.77;;
3819;SDS011;1925;51.356;9.530;2022-08-14T05:18:18;8.93;;;8.07;;
3819;SDS011;1925;51.356;9.530;2022-08-14T05:20:45;7.93;;;7.33;;
3819;SDS011;1925;51.356;9.530;2022-08-14T05:23:12;7.77;;;7.10;;
3819;SDS011;1925;51.356;9.530;2022-08-14T05:25:39;8.47;;;7.67;;
3819;SDS011;1925;51.356;9.530;2022-08-14T05:28:12;7.90;;;7.20;;
3819;SDS011;1925;51.356;9.530;2022-08-14T05:30:42;8.23;;;7.50;;
3819;SDS011;1925;51.356;9.530;2022-08-14T05:33:10;8.50;;;7.80;;
3819;SDS011;1925;51.356;9.530;2022-08-14T05:35:36;9.03;;;8.17;;
3819;SDS011;1925;51.356;9.530;2022-08-14T05:38:06;10.97;;;7.97;;
3819;SDS011;1925;51.356;9.530;2022-08-14T05:40:32;8.00;;;7.40;;
3819;SDS011;1925;51.356;9.530;2022-08-14T05:42:59;8.70;;;7.70;;
3819;SDS011;1925;51.356;9.530;2022-08-14T05:45:25;8.63;;;7.93;;
3819;SDS011;1925;51.356;9.530;2022-08-14T05:47:51;12.03;;;7.60;;
3819;SDS011;1925;51.356;9.530;2022-08-14T05:50:17;7.73;;;7.13;;
3819;SDS011;1925;51.356;9.530;2022-08-14T05:52:43;7.63;;;7.00;;
3819;SDS011;1925;51.356;9.530;2022-08-14T05:55:09;9.13;;;7.73;;
3819;SDS011;1925;51.356;9.530;2022-08-14T06:00:33;8.70;;;7.50;;
3819;SDS011;1925;51.356;9.530;2022-08-14T06:03:00;8.93;;;8.10;;
3819;SDS011;1925;51.356;9.530;2022-08-14T06:05:26;14.00;;;8.37;;
3819;SDS011;1925;51.356;9.530;2022-08-14T06:07:52;8.10;;;7.40;;
3819;SDS011;1925;51.356;9.530;2022-08-14T06:10:19;8.80;;;8.00;;
3819;SDS011;1925;51.356;9.530;2022-08-14T06:12:45;8.40;;;7.70;;
3819;SDS011;1925;51.356;9.530;2022-08-14T06:15:11;8.43;;;7.73;;
3819;SDS011;1925;51.356;9.530;2022-08-14T06:20:09;10.27;;;8.23;;
3819;SDS011;1925;51.356;9.530;2022-08-14T06:22:36;7.53;;;6.93;;
3819;SDS011;1925;51.356;9.530;2022-08-14T06:25:02;9.00;;;8.30;;
3819;SDS011;1925;51.356;9.530;2022-08-14T06:27:33;8.63;;;7.83;;
3819;SDS011;1925;51.356;9.530;2022-08-14T06:29:59;8.47;;;7.77;;
3819;SDS011;1925;51.356;9.530;2022-08-14T06:32:25;8.03;;;7.43;;
3819;SDS011;1925;51.356;9.530;2022-08-14T06:34:51;8.47;;;7.73;;
3819;SDS011;1925;51.356;9.530;2022-08-14T06:37:17;8.03;;;7.30;;
3819;SDS011;1925;51.356;9.530;2022-08-14T06:39:44;7.83;;;7.17;;
3819;SDS011;1925;51.356;9.530;2022-08-14T06:42:10;7.90;;;7.23;;
3819;SDS011;1925;51.356;9.530;2022-08-14T06:44:35;8.43;;;7.73;;
3819;SDS011;1925;51.356;9.530;2022-08-14T06:47:01;8.43;;;7.73;;
3819;SDS011;1925;51.356;9.530;2022-08-14T06:49:28;9.07;;;8.27;;
3819;SDS011;1925;51.356;9.530;2022-08-14T06:51:54;7.50;;;6.90;;
3819;SDS011;1925;51.356;9.530;2022-08-14T06:54:20;8.37;;;7.60;;
3819;SDS011;1925;51.356;9.530;2022-08-14T06:56:46;8.33;;;7.60;;
3819;SDS011;1925;51.356;9.530;2022-08-14T06:59:13;7.33;;;6.73;;
3819;SDS011;1925;51.356;9.530;2022-08-14T07:01:39;7.93;;;7.33;;
3819;SDS011;1925;51.356;9.530;2022-08-14T07:04:24;9.30;;;8.50;;
3819;SDS011;1925;51.356;9.530;2022-08-14T07:07:08;8.10;;;7.50;;
3819;SDS011;1925;51.356;9.530;2022-08-14T07:09:34;9.83;;;8.27;;
3819;SDS011;1925;51.356;9.530;2022-08-14T07:12:00;10.27;;;9.30;;
3819;SDS011;1925;51.356;9.530;2022-08-14T07:14:26;8.90;;;8.07;;
3819;SDS011;1925;51.356;9.530;2022-08-14T07:16:52;8.87;;;8.07;;
3819;SDS011;1925;51.356;9.530;2022-08-14T07:19:18;9.27;;;8.53;;
3819;SDS011;1925;51.356;9.530;2022-08-14T07:21:44;8.63;;;7.80;;
3819;SDS011;1925;51.356;9.530;2022-08-14T07:24:10;8.80;;;7.87;;
3819;SDS011;1925;51.356;9.530;2022-08-14T07:26:36;8.90;;;8.10;;
3819;SDS011;1925;51.356;9.530;2022-08-14T07:29:02;12.03;;;7.70;;
3819;SDS011;1925;51.356;9.530;2022-08-14T07:31:28;8.10;;;7.30;;
3819;SDS011;1925;51.356;9.530;2022-08-14T07:33:54;8.80;;;7.90;;
3819;SDS011;1925;51.356;9.530;2022-08-14T07:36:20;9.00;;;8.20;;
3819;SDS011;1925;51.356;9.530;2022-08-14T07:38:47;7.90;;;7.20;;
3819;SDS011;1925;51.356;9.530;2022-08-14T07:41:12;8.43;;;7.70;;
3819;SDS011;1925;51.356;9.530;2022-08-14T07:43:39;8.20;;;7.40;;
3819;SDS011;1925;51.356;9.530;2022-08-14T07:46:05;6.80;;;6.23;;
3819;SDS011;1925;51.356;9.530;2022-08-14T07:48:35;8.73;;;8.03;;
3819;SDS011;1925;51.356;9.530;2022-08-14T07:51:02;8.67;;;7.80;;
3819;SDS011;1925;51.356;9.530;2022-08-14T07:53:28;8.73;;;7.93;;
3819;SDS011;1925;51.356;9.530;2022-08-14T07:55:54;7.73;;;7.13;;
3819;SDS011;1925;51.356;9.530;2022-08-14T07:58:20;8.07;;;7.23;;
3819;SDS011;1925;51.356;9.530;2022-08-14T08:00:47;8.53;;;7.83;;
3819;SDS011;1925;51.356;9.530;2022-08-14T08:03:13;8.37;;;7.53;;
3819;SDS011;1925;51.356;9.530;2022-08-14T08:05:40;7.50;;;6.90;;
3819;SDS011;1925;51.356;9.530;2022-08-14T08:08:06;8.43;;;7.63;;
3819;SDS011;1925;51.356;9.530;2022-08-14T08:10:32;7.30;;;6.70;;
3819;SDS011;1925;51.356;9.530;2022-08-14T08:13:10;7.40;;;6.70;;
3819;SDS011;1925;51.356;9.530;2022-08-14T08:15:38;7.17;;;6.67;;
3819;SDS011;1925;51.356;9.530;2022-08-14T08:18:05;7.53;;;6.93;;
3819;SDS011;1925;51.356;9.530;2022-08-14T08:20:32;7.80;;;7.20;;
3819;SDS011;1925;51.356;9.530;2022-08-14T08:22:59;9.33;;;8.27;;
3819;SDS011;1925;51.356;9.530;2022-08-14T08:25:26;7.90;;;7.27;;
3819;SDS011;1925;51.356;9.530;2022-08-14T08:28:04;7.00;;;6.40;;
3819;SDS011;1925;51.356;9.530;2022-08-14T08:30:32;8.03;;;6.00;;
3819;SDS011;1925;51.356;9.530;2022-08-14T08:32:59;6.70;;;6.13;;
3819;SDS011;1925;51.356;9.530;2022-08-14T08:35:26;9.20;;;6.50;;
3819;SDS011;1925;51.356;9.530;2022-08-14T08:37:54;7.10;;;6.60;;
3819;SDS011;1925;51.356;9.530;2022-08-14T08:40:33;7.00;;;6.40;;
3819;SDS011;1925;51.356;9.530;2022-08-14T08:43:03;6.70;;;6.20;;
3819;SDS011;1925;51.356;9.530;2022-08-14T08:45:30;6.20;;;5.70;;
3819;SDS011;1925;51.356;9.530;2022-08-14T08:47:57;5.70;;;5.30;;
3819;SDS011;1925;51.356;9.530;2022-08-14T08:50:24;7.07;;;5.87;;
3819;SDS011;1925;51.356;9.530;2022-08-14T08:52:54;7.33;;;6.33;;
3819;SDS011;1925;51.356;9.530;2022-08-14T08:55:27;6.43;;;5.93;;
3819;SDS011;1925;51.356;9.530;2022-08-14T08:57:54;6.10;;;5.50;;
3819;SDS011;1925;51.356;9.530;2022-08-14T09:00:21;6.47;;;5.60;;
3819;SDS011;1925;51.356;9.530;2022-08-14T09:03:00;6.60;;;6.00;;
3819;SDS011;1925;51.356;9.530;2022-08-14T09:05:28;6.40;;;5.90;;
3819;SDS011;1925;51.356;9.530;2022-08-14T09:07:58;5.80;;;5.37;;
3819;SDS011;1925;51.356;9.530;2022-08-14T09:10:33;6.27;;;5.77;;
3819;SDS011;1925;51.356;9.530;2022-08-14T09:12:59;7.10;;;6.40;;
3819;SDS011;1925;51.356;9.530;2022-08-14T09:15:26;6.83;;;6.23;;
3819;SDS011;1925;51.356;9.530;2022-08-14T09:17:52;7.00;;;6.13;;
3819;SDS011;1925;51.356;9.530;2022-08-14T09:20:18;7.90;;;7.10;;
3819;SDS011;1925;51.356;9.530;2022-08-14T09:22:44;8.13;;;6.90;;
3819;SDS011;1925;51.356;9.530;2022-08-14T09:25:12;7.00;;;6.50;;
3819;SDS011;1925;51.356;9.530;2022-08-14T09:27:38;8.47;;;7.57;;
3819;SDS011;1925;51.356;9.530;2022-08-14T09:30:05;7.30;;;6.70;;
3819;SDS011;1925;51.356;9.530;2022-08-14T09:35:23;7.80;;;7.20;;
3819;SDS011;1925;51.356;9.530;2022-08-14T09:38:04;8.00;;;7.30;;
3819;SDS011;1925;51.356;9.530;2022-08-14T09:40:49;7.43;;;6.83;;
3819;SDS011;1925;51.356;9.530;2022-08-14T09:45:54;7.60;;;7.00;;
3819;SDS011;1925;51.356;9.530;2022-08-14T09:48:23;8.47;;;7.77;;
3819;SDS011;1925;51.356;9.530;2022-08-14T09:50:53;7.33;;;6.60;;
3819;SDS011;1925;51.356;9.530;2022-08-14T09:56:06;7.07;;;6.47;;
3819;SDS011;1925;51.356;9.530;2022-08-14T09:58:35;6.30;;;5.80;;
3819;SDS011;1925;51.356;9.530;2022-08-14T10:01:06;6.60;;;5.93;;
3819;SDS011;1925;51.356;9.530;2022-08-14T10:03:34;6.10;;;5.60;;
3819;SDS011;1925;51.356;9.530;2022-08-14T10:06:08;6.00;;;5.60;;
3819;SDS011;1925;51.356;9.530;2022-08-14T10:08:40;7.77;;;5.60;;
3819;SDS011;1925;51.356;9.530;2022-08-14T10:11:13;6.63;;;6.13;;
3819;SDS011;1925;51.356;9.530;2022-08-14T10:13:41;6.63;;;6.10;;
3819;SDS011;1925;51.356;9.530;2022-08-14T10:16:08;5.93;;;5.43;;
3819;SDS011;1925;51.356;9.530;2022-08-14T10:18:34;5.93;;;5.53;;
3819;SDS011;1925;51.356;9.530;2022-08-14T10:21:01;7.63;;;6.83;;
3819;SDS011;1925;51.356;9.530;2022-08-14T10:23:38;6.57;;;5.97;;
3819;SDS011;1925;51.356;9.530;2022-08-14T10:26:07;6.87;;;6.33;;
3819;SDS011;1925;51.356;9.530;2022-08-14T10:28:40;6.43;;;5.93;;
3819;SDS011;1925;51.356;9.530;2022-08-14T10:31:23;6.33;;;5.73;;
3819;SDS011;1925;51.356;9.530;2022-08-14T10:34:29;6.20;;;5.70;;
3819;SDS011;1925;51.356;9.530;2022-08-14T10:36:43;7.30;;;6.80;;
3819;SDS011;1925;51.356;9.530;2022-08-14T10:41:38;7.80;;;7.03;;
3819;SDS011;1925;51.356;9.530;2022-08-14T10:44:06;7.03;;;6.53;;
3819;SDS011;1925;51.356;9.530;2022-08-14T10:46:43;5.80;;;5.40;;
3819;SDS011;1925;51.356;9.530;2022-08-14T10:49:19;6.63;;;6.13;;
3819;SDS011;1925;51.356;9.530;2022-08-14T10:54:30;5.97;;;5.47;;
3819;SDS011;1925;51.356;9.530;2022-08-14T10:56:57;7.00;;;6.30;;
3819;SDS011;1925;51.356;9.530;2022-08-14T10:59:23;6.40;;;5.90;;
3819;SDS011;1925;51.356;9.530;2022-08-14T11:01:50;7.17;;;6.57;;
3819;SDS011;1925;51.356;9.530;2022-08-14T11:04:19;7.00;;;6.40;;
3819;SDS011;1925;51.356;9.530;2022-08-14T11:06:51;6.40;;;5.90;;
3819;SDS011;1925;51.356;9.530;2022-08-14T11:09:17;6.23;;;5.73;;
3819;SDS011;1925;51.356;9.530;2022-08-14T11:11:43;6.50;;;5.90;;
3819;SDS011;1925;51.356;9.530;2022-08-14T11:14:09;7.00;;;6.50;;
3819;SDS011;1925;51.356;9.530;2022-08-14T11:16:35;6.60;;;5.80;;
3819;SDS011;1925;51.356;9.530;2022-08-14T11:19:04;7.27;;;6.77;;
3819;SDS011;1925;51.356;9.530;2022-08-14T11:21:32;8.73;;;5.60;;
3819;SDS011;1925;51.356;9.530;2022-08-14T11:23:58;6.50;;;6.00;;
3819;SDS011;1925;51.356;9.530;2022-08-14T11:26:25;6.77;;;6.07;;
3819;SDS011;1925;51.356;9.530;2022-08-14T11:28:52;6.30;;;5.80;;
3819;SDS011;1925;51.356;9.530;2022-08-14T11:31:21;6.90;;;6.40;;
3819;SDS011;1925;51.356;9.530;2022-08-14T11:33:51;7.60;;;7.00;;
3819;SDS011;1925;51.356;9.530;2022-08-14T11:36:20;6.37;;;5.87;;
3819;SDS011;1925;51.356;9.530;2022-08-14T11:38:47;6.33;;;5.83;;
3819;SDS011;1925;51.356;9.530;2022-08-14T11:41:13;6.60;;;5.97;;
3819;SDS011;1925;51.356;9.530;2022-08-14T11:43:43;7.53;;;6.93;;
3819;SDS011;1925;51.356;9.530;2022-08-14T11:46:10;7.17;;;6.63;;
3819;SDS011;1925;51.356;9.530;2022-08-14T11:48:47;7.17;;;6.57;;
3819;SDS011;1925;51.356;9.530;2022-08-14T11:51:14;7.07;;;6.43;;
3819;SDS011;1925;51.356;9.530;2022-08-14T11:53:41;7.00;;;6.50;;
3819;SDS011;1925;51.356;9.530;2022-08-14T11:56:08;6.47;;;5.97;;
3819;SDS011;1925;51.356;9.530;2022-08-14T11:58:35;7.07;;;6.47;;
3819;SDS011;1925;51.356;9.530;2022-08-14T12:01:06;6.50;;;5.90;;
3819;SDS011;1925;51.356;9.530;2022-08-14T12:03:40;6.60;;;6.10;;
3819;SDS011;1925;51.356;9.530;2022-08-14T12:06:07;7.60;;;7.00;;
3819;SDS011;1925;51.356;9.530;2022-08-14T12:08:34;6.70;;;6.20;;
3819;SDS011;1925;51.356;9.530;2022-08-14T12:11:00;6.33;;;5.73;;
3819;SDS011;1925;51.356;9.530;2022-08-14T12:13:28;6.20;;;5.70;;
3819;SDS011;1925;51.356;9.530;2022-08-14T12:16:01;7.10;;;6.50;;
3819;SDS011;1925;51.356;9.530;2022-08-14T12:18:28;8.57;;;7.87;;
3819;SDS011;1925;51.356;9.530;2022-08-14T12:20:56;6.20;;;5.33;;
3819;SDS011;1925;51.356;9.530;2022-08-14T12:23:23;7.10;;;6.50;;
3819;SDS011;1925;51.356;9.530;2022-08-14T12:25:49;7.13;;;5.77;;
3819;SDS011;1925;51.356;9.530;2022-08-14T12:28:15;6.60;;;6.10;;
3819;SDS011;1925;51.356;9.530;2022-08-14T12:30:42;9.07;;;7.00;;
3819;SDS011;1925;51.356;9.530;2022-08-14T12:33:22;7.00;;;6.47;;
3819;SDS011;1925;51.356;9.530;2022-08-14T12:35:53;6.80;;;6.27;;
3819;SDS011;1925;51.356;9.530;2022-08-14T12:38:29;8.00;;;6.40;;
3819;SDS011;1925;51.356;9.530;2022-08-14T12:40:55;7.83;;;7.20;;
3819;SDS011;1925;51.356;9.530;2022-08-14T12:43:21;7.10;;;6.50;;
3819;SDS011;1925;51.356;9.530;2022-08-14T12:45:48;7.60;;;7.00;;
3819;SDS011;1925;51.356;9.530;2022-08-14T12:48:15;8.47;;;7.67;;
3819;SDS011;1925;51.356;9.530;2022-08-14T12:50:41;6.70;;;6.20;;
3819;SDS011;1925;51.356;9.530;2022-08-14T12:53:08;6.50;;;6.00;;
3819;SDS011;1925;51.356;9.530;2022-08-14T12:55:35;7.63;;;7.03;;
3819;SDS011;1925;51.356;9.530;2022-08-14T12:58:02;6.90;;;6.30;;
3819;SDS011;1925;51.356;9.530;2022-08-14T13:00:29;7.07;;;6.57;;
3819;SDS011;1925;51.356;9.530;2022-08-14T13:02:55;8.77;;;6.03;;
3819;SDS011;1925;51.356;9.530;2022-08-14T13:05:23;6.80;;;6.30;;
3819;SDS011;1925;51.356;9.530;2022-08-14T13:07:50;8.57;;;7.87;;
3819;SDS011;1925;51.356;9.530;2022-08-14T13:10:17;8.37;;;7.70;;
3819;SDS011;1925;51.356;9.530;2022-08-14T13:12:45;8.07;;;7.47;;
3819;SDS011;1925;51.356;9.530;2022-08-14T13:15:12;7.90;;;7.30;;
3819;SDS011;1925;51.356;9.530;2022-08-14T13:20:08;9.00;;;8.20;;
3819;SDS011;1925;51.356;9.530;2022-08-14T13:22:36;9.63;;;8.37;;
3819;SDS011;1925;51.356;9.530;2022-08-14T13:25:02;8.00;;;7.23;;
3819;SDS011;1925;51.356;9.530;2022-08-14T13:27:29;7.90;;;7.20;;
3819;SDS011;1925;51.356;9.530;2022-08-14T13:29:57;7.93;;;7.30;;
3819;SDS011;1925;51.356;9.530;2022-08-14T13:32:24;7.30;;;6.70;;
3819;SDS011;1925;51.356;9.530;2022-08-14T13:34:52;8.60;;;7.73;;
3819;SDS011;1925;51.356;9.530;2022-08-14T13:37:19;7.57;;;6.87;;
3819;SDS011;1925;51.356;9.530;2022-08-14T13:39:49;8.30;;;7.60;;
3819;SDS011;1925;51.356;9.530;2022-08-14T13:42:17;7.97;;;6.80;;
3819;SDS011;1925;51.356;9.530;2022-08-14T13:44:45;7.63;;;7.03;;
3819;SDS011;1925;51.356;9.530;2022-08-14T13:47:11;6.97;;;6.37;;
3819;SDS011;1925;51.356;9.530;2022-08-14T13:49:38;7.83;;;7.23;;
3819;SDS011;1925;51.356;9.530;2022-08-14T13:52:05;7.50;;;6.90;;
3819;SDS011;1925;51.356;9.530;2022-08-14T13:54:32;7.43;;;6.83;;
3819;SDS011;1925;51.356;9.530;2022-08-14T13:56:59;7.63;;;7.03;;
3819;SDS011;1925;51.356;9.530;2022-08-14T13:59:28;8.50;;;6.40;;
3819;SDS011;1925;51.356;9.530;2022-08-14T14:01:56;7.10;;;6.60;;
3819;SDS011;1925;51.356;9.530;2022-08-14T14:04:27;10.60;;;6.73;;
3819;SDS011;1925;51.356;9.530;2022-08-14T14:06:55;7.40;;;6.83;;
3819;SDS011;1925;51.356;9.530;2022-08-14T14:09:25;6.87;;;6.27;;
3819;SDS011;1925;51.356;9.530;2022-08-14T14:11:52;6.53;;;6.03;;
3819;SDS011;1925;51.356;9.530;2022-08-14T14:14:20;6.93;;;6.30;;
3819;SDS011;1925;51.356;9.530;2022-08-14T14:16:46;6.40;;;5.90;;
3819;SDS011;1925;51.356;9.530;2022-08-14T14:19:15;7.17;;;6.57;;
3819;SDS011;1925;51.356;9.530;2022-08-14T14:21:43;7.67;;;7.07;;
3819;SDS011;1925;51.356;9.530;2022-08-14T14:24:09;6.30;;;5.80;;
3819;SDS011;1925;51.356;9.530;2022-08-14T14:26:35;7.20;;;6.50;;
3819;SDS011;1925;51.356;9.530;2022-08-14T14:29:02;7.33;;;6.63;;
3819;SDS011;1925;51.356;9.530;2022-08-14T14:31:30;7.13;;;6.63;;
3819;SDS011;1925;51.356;9.530;2022-08-14T14:33:58;7.70;;;6.97;;
3819;SDS011;1925;51.356;9.530;2022-08-14T14:36:25;6.60;;;6.10;;
3819;SDS011;1925;51.356;9.530;2022-08-14T14:39:02;6.53;;;6.00;;
3819;SDS011;1925;51.356;9.530;2022-08-14T14:41:29;6.27;;;5.77;;
3819;SDS011;1925;51.356;9.530;2022-08-14T14:43:56;6.70;;;6.10;;
3819;SDS011;1925;51.356;9.530;2022-08-14T14:46:23;7.03;;;6.43;;
3819;SDS011;1925;51.356;9.530;2022-08-14T14:48:49;7.70;;;6.93;;
3819;SDS011;1925;51.356;9.530;2022-08-14T14:51:15;7.07;;;6.47;;
3819;SDS011;1925;51.356;9.530;2022-08-14T14:53:43;6.43;;;5.90;;
3819;SDS011;1925;51.356;9.530;2022-08-14T14:56:09;7.10;;;6.50;;
3819;SDS011;1925;51.356;9.530;2022-08-14T14:58:37;6.43;;;5.80;;
3819;SDS011;1925;51.356;9.530;2022-08-14T15:01:03;6.20;;;5.70;;
3819;SDS011;1925;51.356;9.530;2022-08-14T15:03:30;6.03;;;5.63;;
3819;SDS011;1925;51.356;9.530;2022-08-14T15:05:57;6.80;;;6.10;;
3819;SDS011;1925;51.356;9.530;2022-08-14T15:08:24;6.67;;;6.17;;
3819;SDS011;1925;51.356;9.530;2022-08-14T15:10:50;8.40;;;6.67;;
3819;SDS011;1925;51.356;9.530;2022-08-14T15:13:17;7.60;;;6.90;;
3819;SDS011;1925;51.356;9.530;2022-08-14T15:15:44;6.37;;;5.97;;
3819;SDS011;1925;51.356;9.530;2022-08-14T15:18:10;6.63;;;6.03;;
3819;SDS011;1925;51.356;9.530;2022-08-14T15:20:36;7.13;;;6.43;;
3819;SDS011;1925;51.356;9.530;2022-08-14T15:23:02;6.90;;;6.30;;
3819;SDS011;1925;51.356;9.530;2022-08-14T15:25:29;7.40;;;6.90;;
3819;SDS011;1925;51.356;9.530;2022-08-14T15:27:59;6.87;;;6.30;;
3819;SDS011;1925;51.356;9.530;2022-08-14T15:30:26;7.40;;;6.70;;
3819;SDS011;1925;51.356;9.530;2022-08-14T15:32:53;6.50;;;6.00;;
3819;SDS011;1925;51.356;9.530;2022-08-14T15:35:19;7.37;;;6.77;;
3819;SDS011;1925;51.356;9.530;2022-08-14T15:37:46;7.47;;;6.77;;
3819;SDS011;1925;51.356;9.530;2022-08-14T15:40:12;6.13;;;5.60;;
3819;SDS011;1925;51.356;9.530;2022-08-14T15:42:38;7.00;;;6.50;;